Aviation Digital Data Service (ADDS)

Output produced by METARs form (1819 UTC 19 April 2019)
found at http://www.aviationweather.gov/metar/data/
 
METAR text: LIPH 191750Z 20004KT CAVOK 20/03 Q1027
Conditions at: LIPH (TREVISO(CIV/IT-A, IT) observed 1750 UTC 19 April 2019
Temperature: 20.0°C (68°F)
Dewpoint: 3.0°C (37°F) [RH = 32%]
Pressure (altimeter): 30.32 inches Hg (1027.0 mb)
Winds: from the SSW (200 degrees) at 5 MPH (4 knots; 2.1 m/s)
Visibility: 6 or more miles (10+ km)
Ceiling: ceiling and visibility are OK
Clouds: unknown
Weather: no significant weather observed at this time

METAR text: LIPH 191720Z 20004KT CAVOK 20/03 Q1027
Conditions at: LIPH (TREVISO(CIV/IT-A, IT) observed 1720 UTC 19 April 2019
Temperature: 20.0°C (68°F)
Dewpoint: 3.0°C (37°F) [RH = 32%]
Pressure (altimeter): 30.32 inches Hg (1027.0 mb)
Winds: from the SSW (200 degrees) at 5 MPH (4 knots; 2.1 m/s)
Visibility: 6 or more miles (10+ km)
Ceiling: ceiling and visibility are OK
Clouds: unknown
Weather: no significant weather observed at this time

METAR text: LIPH 191650Z 17004KT CAVOK 21/02 Q1027
Conditions at: LIPH (TREVISO(CIV/IT-A, IT) observed 1650 UTC 19 April 2019
Temperature: 21.0°C (70°F)
Dewpoint: 2.0°C (36°F) [RH = 28%]
Pressure (altimeter): 30.32 inches Hg (1027.0 mb)
Winds: from the S (170 degrees) at 5 MPH (4 knots; 2.1 m/s)
Visibility: 6 or more miles (10+ km)
Ceiling: ceiling and visibility are OK
Clouds: unknown
Weather: no significant weather observed at this time

METAR text: LIPH 191620Z 16005KT CAVOK 21/02 Q1027
Conditions at: LIPH (TREVISO(CIV/IT-A, IT) observed 1620 UTC 19 April 2019
Temperature: 21.0°C (70°F)
Dewpoint: 2.0°C (36°F) [RH = 28%]
Pressure (altimeter): 30.32 inches Hg (1027.0 mb)
Winds: from the SSE (160 degrees) at 6 MPH (5 knots; 2.6 m/s)
Visibility: 6 or more miles (10+ km)
Ceiling: ceiling and visibility are OK
Clouds: unknown
Weather: no significant weather observed at this time

METAR text: LIPH 191550Z 12005KT 090V170 CAVOK 21/03 Q1027
Conditions at: LIPH (TREVISO(CIV/IT-A, IT) observed 1550 UTC 19 April 2019
Temperature: 21.0°C (70°F)
Dewpoint: 3.0°C (37°F) [RH = 30%]
Pressure (altimeter): 30.32 inches Hg (1027.0 mb)
Winds: from the ESE (120 degrees) at 6 MPH (5 knots; 2.6 m/s)
Visibility: 6 or more miles (10+ km)
Ceiling: ceiling and visibility are OK
Clouds: unknown
Weather: no significant weather observed at this time

METAR text: LIPH 191520Z 08004KT 350V150 CAVOK 21/05 Q1028
Conditions at: LIPH (TREVISO(CIV/IT-A, IT) observed 1520 UTC 19 April 2019
Temperature: 21.0°C (70°F)
Dewpoint: 5.0°C (41°F) [RH = 35%]
Pressure (altimeter): 30.35 inches Hg (1028.0 mb)
Winds: from the E (80 degrees) at 5 MPH (4 knots; 2.1 m/s)
Visibility: 6 or more miles (10+ km)
Ceiling: ceiling and visibility are OK
Clouds: unknown
Weather: no significant weather observed at this time

METAR text: LIPH 191450Z 13007KT 060V190 CAVOK 21/05 Q1028
Conditions at: LIPH (TREVISO(CIV/IT-A, IT) observed 1450 UTC 19 April 2019
Temperature: 21.0°C (70°F)
Dewpoint: 5.0°C (41°F) [RH = 35%]
Pressure (altimeter): 30.35 inches Hg (1028.0 mb)
Winds: from the SE (130 degrees) at 8 MPH (7 knots; 3.6 m/s)
Visibility: 6 or more miles (10+ km)
Ceiling: ceiling and visibility are OK
Clouds: unknown
Weather: no significant weather observed at this time

METAR text: LIPH 191420Z 17005KT 070V220 CAVOK 21/06 Q1028
Conditions at: LIPH (TREVISO(CIV/IT-A, IT) observed 1420 UTC 19 April 2019
Temperature: 21.0°C (70°F)
Dewpoint: 6.0°C (43°F) [RH = 38%]
Pressure (altimeter): 30.35 inches Hg (1028.0 mb)
Winds: from the S (170 degrees) at 6 MPH (5 knots; 2.6 m/s)
Visibility: 6 or more miles (10+ km)
Ceiling: ceiling and visibility are OK
Clouds: unknown
Weather: no significant weather observed at this time

METAR text: LIPH 191350Z 15005KT 100V230 CAVOK 21/05 Q1028
Conditions at: LIPH (TREVISO(CIV/IT-A, IT) observed 1350 UTC 19 April 2019
Temperature: 21.0°C (70°F)
Dewpoint: 5.0°C (41°F) [RH = 35%]
Pressure (altimeter): 30.35 inches Hg (1028.0 mb)
Winds: from the SSE (150 degrees) at 6 MPH (5 knots; 2.6 m/s)
Visibility: 6 or more miles (10+ km)
Ceiling: ceiling and visibility are OK
Clouds: unknown
Weather: no significant weather observed at this time

METAR text: LIPH 191320Z 12006KT 090V160 CAVOK 21/05 Q1028
Conditions at: LIPH (TREVISO(CIV/IT-A, IT) observed 1320 UTC 19 April 2019
Temperature: 21.0°C (70°F)
Dewpoint: 5.0°C (41°F) [RH = 35%]
Pressure (altimeter): 30.35 inches Hg (1028.0 mb)
Winds: from the ESE (120 degrees) at 7 MPH (6 knots; 3.1 m/s)
Visibility: 6 or more miles (10+ km)
Ceiling: ceiling and visibility are OK
Clouds: unknown
Weather: no significant weather observed at this time

METAR text: LIPH 191250Z VRB06KT CAVOK 21/06 Q1029
Conditions at: LIPH (TREVISO(CIV/IT-A, IT) observed 1250 UTC 19 April 2019
Temperature: 21.0°C (70°F)
Dewpoint: 6.0°C (43°F) [RH = 38%]
Pressure (altimeter): 30.38 inches Hg (1029.0 mb)
Winds: variable direction winds at 7 MPH (6 knots; 3.1 m/s)
Visibility: 6 or more miles (10+ km)
Ceiling: ceiling and visibility are OK
Clouds: unknown
Weather: no significant weather observed at this time

METAR text: LIPH 191220Z VRB08KT CAVOK 21/06 Q1029
Conditions at: LIPH (TREVISO(CIV/IT-A, IT) observed 1220 UTC 19 April 2019
Temperature: 21.0°C (70°F)
Dewpoint: 6.0°C (43°F) [RH = 38%]
Pressure (altimeter): 30.38 inches Hg (1029.0 mb)
Winds: variable direction winds at 9 MPH (8 knots; 4.1 m/s)
Visibility: 6 or more miles (10+ km)
Ceiling: ceiling and visibility are OK
Clouds: unknown
Weather: no significant weather observed at this time

METAR text: LIPH 191150Z 08006KT 020V140 CAVOK 21/06 Q1029
Conditions at: LIPH (TREVISO(CIV/IT-A, IT) observed 1150 UTC 19 April 2019
Temperature: 21.0°C (70°F)
Dewpoint: 6.0°C (43°F) [RH = 38%]
Pressure (altimeter): 30.38 inches Hg (1029.0 mb)
Winds: from the E (80 degrees) at 7 MPH (6 knots; 3.1 m/s)
Visibility: 6 or more miles (10+ km)
Ceiling: ceiling and visibility are OK
Clouds: unknown
Weather: no significant weather observed at this time

METAR text: LIPH 191120Z 10006KT 020V140 CAVOK 21/06 Q1029
Conditions at: LIPH (TREVISO(CIV/IT-A, IT) observed 1120 UTC 19 April 2019
Temperature: 21.0°C (70°F)
Dewpoint: 6.0°C (43°F) [RH = 38%]
Pressure (altimeter): 30.38 inches Hg (1029.0 mb)
Winds: from the E (100 degrees) at 7 MPH (6 knots; 3.1 m/s)
Visibility: 6 or more miles (10+ km)
Ceiling: ceiling and visibility are OK
Clouds: unknown
Weather: no significant weather observed at this time

METAR text: LIPH 191050Z VRB06KT CAVOK 20/05 Q1030
Conditions at: LIPH (TREVISO(CIV/IT-A, IT) observed 1050 UTC 19 April 2019
Temperature: 20.0°C (68°F)
Dewpoint: 5.0°C (41°F) [RH = 37%]
Pressure (altimeter): 30.41 inches Hg (1030.0 mb)
Winds: variable direction winds at 7 MPH (6 knots; 3.1 m/s)
Visibility: 6 or more miles (10+ km)
Ceiling: ceiling and visibility are OK
Clouds: unknown
Weather: no significant weather observed at this time

METAR text: LIPH 191020Z 07005KT 330V120 CAVOK 20/05 Q1030
Conditions at: LIPH (TREVISO(CIV/IT-A, IT) observed 1020 UTC 19 April 2019
Temperature: 20.0°C (68°F)
Dewpoint: 5.0°C (41°F) [RH = 37%]
Pressure (altimeter): 30.41 inches Hg (1030.0 mb)
Winds: from the ENE (70 degrees) at 6 MPH (5 knots; 2.6 m/s)
Visibility: 6 or more miles (10+ km)
Ceiling: ceiling and visibility are OK
Clouds: unknown
Weather: no significant weather observed at this time

METAR text: LIPH 190950Z 08006KT 350V130 CAVOK 20/06 Q1030
Conditions at: LIPH (TREVISO(CIV/IT-A, IT) observed 0950 UTC 19 April 2019
Temperature: 20.0°C (68°F)
Dewpoint: 6.0°C (43°F) [RH = 40%]
Pressure (altimeter): 30.41 inches Hg (1030.0 mb)
Winds: from the E (80 degrees) at 7 MPH (6 knots; 3.1 m/s)
Visibility: 6 or more miles (10+ km)
Ceiling: ceiling and visibility are OK
Clouds: unknown
Weather: no significant weather observed at this time

METAR text: LIPH 190920Z 10007KT 050V140 CAVOK 19/06 Q1030
Conditions at: LIPH (TREVISO(CIV/IT-A, IT) observed 0920 UTC 19 April 2019
Temperature: 19.0°C (66°F)
Dewpoint: 6.0°C (43°F) [RH = 43%]
Pressure (altimeter): 30.41 inches Hg (1030.0 mb)
Winds: from the E (100 degrees) at 8 MPH (7 knots; 3.6 m/s)
Visibility: 6 or more miles (10+ km)
Ceiling: ceiling and visibility are OK
Clouds: unknown
Weather: no significant weather observed at this time

METAR text: LIPH 190850Z 07007KT 040V110 CAVOK 19/07 Q1030
Conditions at: LIPH (TREVISO(CIV/IT-A, IT) observed 0850 UTC 19 April 2019
Temperature: 19.0°C (66°F)
Dewpoint: 7.0°C (45°F) [RH = 46%]
Pressure (altimeter): 30.41 inches Hg (1030.0 mb)
Winds: from the ENE (70 degrees) at 8 MPH (7 knots; 3.6 m/s)
Visibility: 6 or more miles (10+ km)
Ceiling: ceiling and visibility are OK
Clouds: unknown
Weather: no significant weather observed at this time

METAR text: LIPH 190820Z 06007KT 030V100 CAVOK 18/06 Q1030
Conditions at: LIPH (TREVISO(CIV/IT-A, IT) observed 0820 UTC 19 April 2019
Temperature: 18.0°C (64°F)
Dewpoint: 6.0°C (43°F) [RH = 45%]
Pressure (altimeter): 30.41 inches Hg (1030.0 mb)
Winds: from the ENE (60 degrees) at 8 MPH (7 knots; 3.6 m/s)
Visibility: 6 or more miles (10+ km)
Ceiling: ceiling and visibility are OK
Clouds: unknown
Weather: no significant weather observed at this time

METAR text: LIPH 190750Z 06007KT 030V100 CAVOK 18/06 Q1030
Conditions at: LIPH (TREVISO(CIV/IT-A, IT) observed 0750 UTC 19 April 2019
Temperature: 18.0°C (64°F)
Dewpoint: 6.0°C (43°F) [RH = 45%]
Pressure (altimeter): 30.41 inches Hg (1030.0 mb)
Winds: from the ENE (60 degrees) at 8 MPH (7 knots; 3.6 m/s)
Visibility: 6 or more miles (10+ km)
Ceiling: ceiling and visibility are OK
Clouds: unknown
Weather: no significant weather observed at this time

METAR text: LIPH 190720Z 05005KT 020V080 CAVOK 17/06 Q1030
Conditions at: LIPH (TREVISO(CIV/IT-A, IT) observed 0720 UTC 19 April 2019
Temperature: 17.0°C (63°F)
Dewpoint: 6.0°C (43°F) [RH = 48%]
Pressure (altimeter): 30.41 inches Hg (1030.0 mb)
Winds: from the NE (50 degrees) at 6 MPH (5 knots; 2.6 m/s)
Visibility: 6 or more miles (10+ km)
Ceiling: ceiling and visibility are OK
Clouds: unknown
Weather: no significant weather observed at this time

METAR text: LIPH 190650Z 02004KT 360V060 CAVOK 17/07 Q1030
Conditions at: LIPH (TREVISO(CIV/IT-A, IT) observed 0650 UTC 19 April 2019
Temperature: 17.0°C (63°F)
Dewpoint: 7.0°C (45°F) [RH = 52%]
Pressure (altimeter): 30.41 inches Hg (1030.0 mb)
Winds: from the NNE (20 degrees) at 5 MPH (4 knots; 2.1 m/s)
Visibility: 6 or more miles (10+ km)
Ceiling: ceiling and visibility are OK
Clouds: unknown
Weather: no significant weather observed at this time

METAR text: LIPH 190620Z 02004KT 350V050 CAVOK 15/07 Q1029
Conditions at: LIPH (TREVISO(CIV/IT-A, IT) observed 0620 UTC 19 April 2019
Temperature: 15.0°C (59°F)
Dewpoint: 7.0°C (45°F) [RH = 59%]
Pressure (altimeter): 30.38 inches Hg (1029.0 mb)
Winds: from the NNE (20 degrees) at 5 MPH (4 knots; 2.1 m/s)
Visibility: 6 or more miles (10+ km)
Ceiling: ceiling and visibility are OK
Clouds: unknown
Weather: no significant weather observed at this time

METAR text: LIPH 190550Z 02005KT CAVOK 14/06 Q1029
Conditions at: LIPH (TREVISO(CIV/IT-A, IT) observed 0550 UTC 19 April 2019
Temperature: 14.0°C (57°F)
Dewpoint: 6.0°C (43°F) [RH = 58%]
Pressure (altimeter): 30.38 inches Hg (1029.0 mb)
Winds: from the NNE (20 degrees) at 6 MPH (5 knots; 2.6 m/s)
Visibility: 6 or more miles (10+ km)
Ceiling: ceiling and visibility are OK
Clouds: unknown
Weather: no significant weather observed at this time

METAR text: LIPH 190520Z 02004KT CAVOK 12/06 Q1029
Conditions at: LIPH (TREVISO(CIV/IT-A, IT) observed 0520 UTC 19 April 2019
Temperature: 12.0°C (54°F)
Dewpoint: 6.0°C (43°F) [RH = 67%]
Pressure (altimeter): 30.38 inches Hg (1029.0 mb)
Winds: from the NNE (20 degrees) at 5 MPH (4 knots; 2.1 m/s)
Visibility: 6 or more miles (10+ km)
Ceiling: ceiling and visibility are OK
Clouds: unknown
Weather: no significant weather observed at this time

METAR text: LIPH 190450Z AUTO 01004KT 9999 NCD 12/06 Q1029
Conditions at: LIPH (TREVISO(CIV/IT-A, IT) observed 0450 UTC 19 April 2019
Temperature: 12.0°C (54°F)
Dewpoint: 6.0°C (43°F) [RH = 67%]
Pressure (altimeter): 30.38 inches Hg (1029.0 mb)
Winds: from the N (10 degrees) at 5 MPH (4 knots; 2.1 m/s)
Visibility: 6 or more miles (10+ km)
Ceiling: at least 12,000 feet AGL
Clouds: sky clear below 12,000 feet AGL
Weather: no significant weather observed at this time

METAR text: LIPH 190420Z AUTO 01003KT 9999 NCD 11/06 Q1029
Conditions at: LIPH (TREVISO(CIV/IT-A, IT) observed 0420 UTC 19 April 2019
Temperature: 11.0°C (52°F)
Dewpoint: 6.0°C (43°F) [RH = 71%]
Pressure (altimeter): 30.38 inches Hg (1029.0 mb)
Winds: from the N (10 degrees) at 3 MPH (3 knots; 1.5 m/s)
Visibility: 6 or more miles (10+ km)
Ceiling: at least 12,000 feet AGL
Clouds: sky clear below 12,000 feet AGL
Weather: no significant weather observed at this time

METAR text: LIPH 190350Z AUTO 36003KT 9999 NCD 12/07 Q1029
Conditions at: LIPH (TREVISO(CIV/IT-A, IT) observed 0350 UTC 19 April 2019
Temperature: 12.0°C (54°F)
Dewpoint: 7.0°C (45°F) [RH = 71%]
Pressure (altimeter): 30.38 inches Hg (1029.0 mb)
Winds: from the N (360 degrees) at 3 MPH (3 knots; 1.5 m/s)
Visibility: 6 or more miles (10+ km)
Ceiling: at least 12,000 feet AGL
Clouds: sky clear below 12,000 feet AGL
Weather: no significant weather observed at this time

METAR text: LIPH 190320Z AUTO 02003KT 9999 NCD 11/07 Q1029
Conditions at: LIPH (TREVISO(CIV/IT-A, IT) observed 0320 UTC 19 April 2019
Temperature: 11.0°C (52°F)
Dewpoint: 7.0°C (45°F) [RH = 76%]
Pressure (altimeter): 30.38 inches Hg (1029.0 mb)
Winds: from the NNE (20 degrees) at 3 MPH (3 knots; 1.5 m/s)
Visibility: 6 or more miles (10+ km)
Ceiling: at least 12,000 feet AGL
Clouds: sky clear below 12,000 feet AGL
Weather: no significant weather observed at this time

METAR text: LIPH 190250Z AUTO 36004KT 9999 NCD 12/07 Q1028
Conditions at: LIPH (TREVISO(CIV/IT-A, IT) observed 0250 UTC 19 April 2019
Temperature: 12.0°C (54°F)
Dewpoint: 7.0°C (45°F) [RH = 71%]
Pressure (altimeter): 30.35 inches Hg (1028.0 mb)
Winds: from the N (360 degrees) at 5 MPH (4 knots; 2.1 m/s)
Visibility: 6 or more miles (10+ km)
Ceiling: at least 12,000 feet AGL
Clouds: sky clear below 12,000 feet AGL
Weather: no significant weather observed at this time

METAR text: LIPH 190220Z AUTO 02003KT 9999 NCD 12/07 Q1028
Conditions at: LIPH (TREVISO(CIV/IT-A, IT) observed 0220 UTC 19 April 2019
Temperature: 12.0°C (54°F)
Dewpoint: 7.0°C (45°F) [RH = 71%]
Pressure (altimeter): 30.35 inches Hg (1028.0 mb)
Winds: from the NNE (20 degrees) at 3 MPH (3 knots; 1.5 m/s)
Visibility: 6 or more miles (10+ km)
Ceiling: at least 12,000 feet AGL
Clouds: sky clear below 12,000 feet AGL
Weather: no significant weather observed at this time

METAR text: LIPH 190150Z AUTO 01005KT 9999 FEW078/// 13/07 Q1028
Conditions at: LIPH (TREVISO(CIV/IT-A, IT) observed 0150 UTC 19 April 2019
Temperature: 13.0°C (55°F)
Dewpoint: 7.0°C (45°F) [RH = 67%]
Pressure (altimeter): 30.35 inches Hg (1028.0 mb)
Winds: from the N (10 degrees) at 6 MPH (5 knots; 2.6 m/s)
Visibility: 6 or more miles (10+ km)
Ceiling: at least 12,000 feet AGL
Clouds: few clouds at 7800 feet AGL
Weather: no significant weather observed at this time

METAR text: LIPH 190120Z AUTO 36004KT 9999 SCT077/// 13/07 Q1028
Conditions at: LIPH (TREVISO(CIV/IT-A, IT) observed 0120 UTC 19 April 2019
Temperature: 13.0°C (55°F)
Dewpoint: 7.0°C (45°F) [RH = 67%]
Pressure (altimeter): 30.35 inches Hg (1028.0 mb)
Winds: from the N (360 degrees) at 5 MPH (4 knots; 2.1 m/s)
Visibility: 6 or more miles (10+ km)
Ceiling: at least 12,000 feet AGL
Clouds: scattered clouds at 7700 feet AGL
Weather: no significant weather observed at this time

METAR text: LIPH 190050Z AUTO 36003KT 9999 FEW087/// 14/07 Q1028
Conditions at: LIPH (TREVISO(CIV/IT-A, IT) observed 0050 UTC 19 April 2019
Temperature: 14.0°C (57°F)
Dewpoint: 7.0°C (45°F) [RH = 63%]
Pressure (altimeter): 30.35 inches Hg (1028.0 mb)
Winds: from the N (360 degrees) at 3 MPH (3 knots; 1.5 m/s)
Visibility: 6 or more miles (10+ km)
Ceiling: at least 12,000 feet AGL
Clouds: few clouds at 8700 feet AGL
Weather: no significant weather observed at this time

METAR text: LIPH 190020Z AUTO 07004KT 9999 OVC083/// 14/07 Q1028
Conditions at: LIPH (TREVISO(CIV/IT-A, IT) observed 0020 UTC 19 April 2019
Temperature: 14.0°C (57°F)
Dewpoint: 7.0°C (45°F) [RH = 63%]
Pressure (altimeter): 30.35 inches Hg (1028.0 mb)
Winds: from the ENE (70 degrees) at 5 MPH (4 knots; 2.1 m/s)
Visibility: 6 or more miles (10+ km)
Ceiling: 8300 feet AGL
Clouds: overcast cloud deck at 8300 feet AGL
Weather: no significant weather observed at this time

METAR text: LIPH 182350Z AUTO 08004KT 9999 OVC089/// 14/07 Q1028
Conditions at: LIPH (TREVISO(CIV/IT-A, IT) observed 2350 UTC 18 April 2019
Temperature: 14.0°C (57°F)
Dewpoint: 7.0°C (45°F) [RH = 63%]
Pressure (altimeter): 30.35 inches Hg (1028.0 mb)
Winds: from the E (80 degrees) at 5 MPH (4 knots; 2.1 m/s)
Visibility: 6 or more miles (10+ km)
Ceiling: 8900 feet AGL
Clouds: overcast cloud deck at 8900 feet AGL
Weather: no significant weather observed at this time

METAR text: LIPH 182320Z AUTO 07004KT 9999 BKN085/// 14/07 Q1028
Conditions at: LIPH (TREVISO(CIV/IT-A, IT) observed 2320 UTC 18 April 2019
Temperature: 14.0°C (57°F)
Dewpoint: 7.0°C (45°F) [RH = 63%]
Pressure (altimeter): 30.35 inches Hg (1028.0 mb)
Winds: from the ENE (70 degrees) at 5 MPH (4 knots; 2.1 m/s)
Visibility: 6 or more miles (10+ km)
Ceiling: 8500 feet AGL
Clouds: broken clouds at 8500 feet AGL
Weather: no significant weather observed at this time

METAR text: LIPH 182250Z AUTO 07005KT 9999 BKN082/// 14/07 Q1028
Conditions at: LIPH (TREVISO(CIV/IT-A, IT) observed 2250 UTC 18 April 2019
Temperature: 14.0°C (57°F)
Dewpoint: 7.0°C (45°F) [RH = 63%]
Pressure (altimeter): 30.35 inches Hg (1028.0 mb)
Winds: from the ENE (70 degrees) at 6 MPH (5 knots; 2.6 m/s)
Visibility: 6 or more miles (10+ km)
Ceiling: 8200 feet AGL
Clouds: broken clouds at 8200 feet AGL
Weather: no significant weather observed at this time

METAR text: LIPH 182220Z AUTO 04004KT 9999 BKN081/// BKN098/// 15/07 Q1028
Conditions at: LIPH (TREVISO(CIV/IT-A, IT) observed 2220 UTC 18 April 2019
Temperature: 15.0°C (59°F)
Dewpoint: 7.0°C (45°F) [RH = 59%]
Pressure (altimeter): 30.35 inches Hg (1028.0 mb)
Winds: from the NE (40 degrees) at 5 MPH (4 knots; 2.1 m/s)
Visibility: 6 or more miles (10+ km)
Ceiling: 8100 feet AGL
Clouds: broken clouds at 8100 feet AGL
broken clouds at 9800 feet AGL
Weather: no significant weather observed at this time

METAR text: LIPH 182150Z AUTO 04003KT 340V080 9999 OVC095/// 15/07 Q1028
Conditions at: LIPH (TREVISO(CIV/IT-A, IT) observed 2150 UTC 18 April 2019
Temperature: 15.0°C (59°F)
Dewpoint: 7.0°C (45°F) [RH = 59%]
Pressure (altimeter): 30.35 inches Hg (1028.0 mb)
Winds: from the NE (40 degrees) at 3 MPH (3 knots; 1.5 m/s)
Visibility: 6 or more miles (10+ km)
Ceiling: 9500 feet AGL
Clouds: overcast cloud deck at 9500 feet AGL
Weather: no significant weather observed at this time

METAR text: LIPH 182120Z AUTO 36003KT 320V040 9999 OVC083/// 15/06 Q1027
Conditions at: LIPH (TREVISO(CIV/IT-A, IT) observed 2120 UTC 18 April 2019
Temperature: 15.0°C (59°F)
Dewpoint: 6.0°C (43°F) [RH = 55%]
Pressure (altimeter): 30.32 inches Hg (1027.0 mb)
Winds: from the N (360 degrees) at 3 MPH (3 knots; 1.5 m/s)
Visibility: 6 or more miles (10+ km)
Ceiling: 8300 feet AGL
Clouds: overcast cloud deck at 8300 feet AGL
Weather: no significant weather observed at this time

METAR text: LIPH 182050Z VRB01KT CAVOK 16/05 Q1027
Conditions at: LIPH (TREVISO(CIV/IT-A, IT) observed 2050 UTC 18 April 2019
Temperature: 16.0°C (61°F)
Dewpoint: 5.0°C (41°F) [RH = 48%]
Pressure (altimeter): 30.32 inches Hg (1027.0 mb)
Winds: variable direction winds at 1 MPH (1 knots; 0.5 m/s)
Visibility: 6 or more miles (10+ km)
Ceiling: ceiling and visibility are OK
Clouds: unknown
Weather: no significant weather observed at this time

METAR text: LIPH 182020Z VRB02KT CAVOK 16/05 Q1027
Conditions at: LIPH (TREVISO(CIV/IT-A, IT) observed 2020 UTC 18 April 2019
Temperature: 16.0°C (61°F)
Dewpoint: 5.0°C (41°F) [RH = 48%]
Pressure (altimeter): 30.32 inches Hg (1027.0 mb)
Winds: variable direction winds at 2 MPH (2 knots; 1.0 m/s)
Visibility: 6 or more miles (10+ km)
Ceiling: ceiling and visibility are OK
Clouds: unknown
Weather: no significant weather observed at this time

METAR text: LIPH 181950Z 17002KT CAVOK 16/05 Q1026
Conditions at: LIPH (TREVISO(CIV/IT-A, IT) observed 1950 UTC 18 April 2019
Temperature: 16.0°C (61°F)
Dewpoint: 5.0°C (41°F) [RH = 48%]
Pressure (altimeter): 30.30 inches Hg (1026.0 mb)
Winds: from the S (170 degrees) at 2 MPH (2 knots; 1.0 m/s)
Visibility: 6 or more miles (10+ km)
Ceiling: ceiling and visibility are OK
Clouds: unknown
Weather: no significant weather observed at this time

METAR text: LIPH 181920Z VRB02KT CAVOK 16/05 Q1026
Conditions at: LIPH (TREVISO(CIV/IT-A, IT) observed 1920 UTC 18 April 2019
Temperature: 16.0°C (61°F)
Dewpoint: 5.0°C (41°F) [RH = 48%]
Pressure (altimeter): 30.30 inches Hg (1026.0 mb)
Winds: variable direction winds at 2 MPH (2 knots; 1.0 m/s)
Visibility: 6 or more miles (10+ km)
Ceiling: ceiling and visibility are OK
Clouds: unknown
Weather: no significant weather observed at this time

METAR text: LIPH 181850Z 17002KT CAVOK 17/05 Q1026
Conditions at: LIPH (TREVISO(CIV/IT-A, IT) observed 1850 UTC 18 April 2019
Temperature: 17.0°C (63°F)
Dewpoint: 5.0°C (41°F) [RH = 45%]
Pressure (altimeter): 30.30 inches Hg (1026.0 mb)
Winds: from the S (170 degrees) at 2 MPH (2 knots; 1.0 m/s)
Visibility: 6 or more miles (10+ km)
Ceiling: ceiling and visibility are OK
Clouds: unknown
Weather: no significant weather observed at this time

METAR text: LIPH 181820Z VRB02KT CAVOK 18/05 Q1025
Conditions at: LIPH (TREVISO(CIV/IT-A, IT) observed 1820 UTC 18 April 2019
Temperature: 18.0°C (64°F)
Dewpoint: 5.0°C (41°F) [RH = 42%]
Pressure (altimeter): 30.27 inches Hg (1025.0 mb)
Winds: variable direction winds at 2 MPH (2 knots; 1.0 m/s)
Visibility: 6 or more miles (10+ km)
Ceiling: ceiling and visibility are OK
Clouds: unknown
Weather: no significant weather observed at this time

METAR text: LIPH 181750Z 19004KT CAVOK 18/05 Q1025
Conditions at: LIPH (TREVISO(CIV/IT-A, IT) observed 1750 UTC 18 April 2019
Temperature: 18.0°C (64°F)
Dewpoint: 5.0°C (41°F) [RH = 42%]
Pressure (altimeter): 30.27 inches Hg (1025.0 mb)
Winds: from the S (190 degrees) at 5 MPH (4 knots; 2.1 m/s)
Visibility: 6 or more miles (10+ km)
Ceiling: ceiling and visibility are OK
Clouds: unknown
Weather: no significant weather observed at this time

METAR text: LIPH 181720Z 18004KT CAVOK 19/05 Q1025
Conditions at: LIPH (TREVISO(CIV/IT-A, IT) observed 1720 UTC 18 April 2019
Temperature: 19.0°C (66°F)
Dewpoint: 5.0°C (41°F) [RH = 40%]
Pressure (altimeter): 30.27 inches Hg (1025.0 mb)
Winds: from the S (180 degrees) at 5 MPH (4 knots; 2.1 m/s)
Visibility: 6 or more miles (10+ km)
Ceiling: ceiling and visibility are OK
Clouds: unknown
Weather: no significant weather observed at this time

METAR text: LIPH 181650Z 16005KT CAVOK 20/05 Q1024
Conditions at: LIPH (TREVISO(CIV/IT-A, IT) observed 1650 UTC 18 April 2019
Temperature: 20.0°C (68°F)
Dewpoint: 5.0°C (41°F) [RH = 37%]
Pressure (altimeter): 30.24 inches Hg (1024.0 mb)
Winds: from the SSE (160 degrees) at 6 MPH (5 knots; 2.6 m/s)
Visibility: 6 or more miles (10+ km)
Ceiling: ceiling and visibility are OK
Clouds: unknown
Weather: no significant weather observed at this time

METAR text: LIPH 181620Z 15006KT CAVOK 20/06 Q1024
Conditions at: LIPH (TREVISO(CIV/IT-A, IT) observed 1620 UTC 18 April 2019
Temperature: 20.0°C (68°F)
Dewpoint: 6.0°C (43°F) [RH = 40%]
Pressure (altimeter): 30.24 inches Hg (1024.0 mb)
Winds: from the SSE (150 degrees) at 7 MPH (6 knots; 3.1 m/s)
Visibility: 6 or more miles (10+ km)
Ceiling: ceiling and visibility are OK
Clouds: unknown
Weather: no significant weather observed at this time

METAR text: LIPH 181550Z 16005KT 130V200 CAVOK 21/07 Q1024
Conditions at: LIPH (TREVISO(CIV/IT-A, IT) observed 1550 UTC 18 April 2019
Temperature: 21.0°C (70°F)
Dewpoint: 7.0°C (45°F) [RH = 40%]
Pressure (altimeter): 30.24 inches Hg (1024.0 mb)
Winds: from the SSE (160 degrees) at 6 MPH (5 knots; 2.6 m/s)
Visibility: 6 or more miles (10+ km)
Ceiling: ceiling and visibility are OK
Clouds: unknown
Weather: no significant weather observed at this time

METAR text: LIPH 181520Z 17005KT 130V230 CAVOK 21/07 Q1024
Conditions at: LIPH (TREVISO(CIV/IT-A, IT) observed 1520 UTC 18 April 2019
Temperature: 21.0°C (70°F)
Dewpoint: 7.0°C (45°F) [RH = 40%]
Pressure (altimeter): 30.24 inches Hg (1024.0 mb)
Winds: from the S (170 degrees) at 6 MPH (5 knots; 2.6 m/s)
Visibility: 6 or more miles (10+ km)
Ceiling: ceiling and visibility are OK
Clouds: unknown
Weather: no significant weather observed at this time

METAR text: LIPH 181450Z 10003KT 020V140 CAVOK 21/07 Q1024
Conditions at: LIPH (TREVISO(CIV/IT-A, IT) observed 1450 UTC 18 April 2019
Temperature: 21.0°C (70°F)
Dewpoint: 7.0°C (45°F) [RH = 40%]
Pressure (altimeter): 30.24 inches Hg (1024.0 mb)
Winds: from the E (100 degrees) at 3 MPH (3 knots; 1.5 m/s)
Visibility: 6 or more miles (10+ km)
Ceiling: ceiling and visibility are OK
Clouds: unknown
Weather: no significant weather observed at this time

METAR text: LIPH 181420Z 19006KT 080V210 CAVOK 21/07 Q1024
Conditions at: LIPH (TREVISO(CIV/IT-A, IT) observed 1420 UTC 18 April 2019
Temperature: 21.0°C (70°F)
Dewpoint: 7.0°C (45°F) [RH = 40%]
Pressure (altimeter): 30.24 inches Hg (1024.0 mb)
Winds: from the S (190 degrees) at 7 MPH (6 knots; 3.1 m/s)
Visibility: 6 or more miles (10+ km)
Ceiling: ceiling and visibility are OK
Clouds: unknown
Weather: no significant weather observed at this time

METAR text: LIPH 181350Z 10008KT 060V170 CAVOK 21/08 Q1024
Conditions at: LIPH (TREVISO(CIV/IT-A, IT) observed 1350 UTC 18 April 2019
Temperature: 21.0°C (70°F)
Dewpoint: 8.0°C (46°F) [RH = 43%]
Pressure (altimeter): 30.24 inches Hg (1024.0 mb)
Winds: from the E (100 degrees) at 9 MPH (8 knots; 4.1 m/s)
Visibility: 6 or more miles (10+ km)
Ceiling: ceiling and visibility are OK
Clouds: unknown
Weather: no significant weather observed at this time

METAR text: LIPH 181320Z VRB05KT CAVOK 21/06 Q1024 RMK WS R07
Conditions at: LIPH (TREVISO(CIV/IT-A, IT) observed 1320 UTC 18 April 2019
Temperature: 21.0°C (70°F)
Dewpoint: 6.0°C (43°F) [RH = 38%]
Pressure (altimeter): 30.24 inches Hg (1024.0 mb)
Winds: variable direction winds at 6 MPH (5 knots; 2.6 m/s)
Visibility: 6 or more miles (10+ km)
Ceiling: ceiling and visibility are OK
Clouds: unknown
Weather: no significant weather observed at this time

METAR text: LIPH 181250Z 14006KT 060V190 CAVOK 21/08 Q1025
Conditions at: LIPH (TREVISO(CIV/IT-A, IT) observed 1250 UTC 18 April 2019
Temperature: 21.0°C (70°F)
Dewpoint: 8.0°C (46°F) [RH = 43%]
Pressure (altimeter): 30.27 inches Hg (1025.0 mb)
Winds: from the SE (140 degrees) at 7 MPH (6 knots; 3.1 m/s)
Visibility: 6 or more miles (10+ km)
Ceiling: ceiling and visibility are OK
Clouds: unknown
Weather: no significant weather observed at this time

METAR text: LIPH 181220Z VRB04KT CAVOK 20/05 Q1025
Conditions at: LIPH (TREVISO(CIV/IT-A, IT) observed 1220 UTC 18 April 2019
Temperature: 20.0°C (68°F)
Dewpoint: 5.0°C (41°F) [RH = 37%]
Pressure (altimeter): 30.27 inches Hg (1025.0 mb)
Winds: variable direction winds at 5 MPH (4 knots; 2.1 m/s)
Visibility: 6 or more miles (10+ km)
Ceiling: ceiling and visibility are OK
Clouds: unknown
Weather: no significant weather observed at this time

METAR text: LIPH 181150Z 09004KT 020V170 CAVOK 20/06 Q1025
Conditions at: LIPH (TREVISO(CIV/IT-A, IT) observed 1150 UTC 18 April 2019
Temperature: 20.0°C (68°F)
Dewpoint: 6.0°C (43°F) [RH = 40%]
Pressure (altimeter): 30.27 inches Hg (1025.0 mb)
Winds: from the E (90 degrees) at 5 MPH (4 knots; 2.1 m/s)
Visibility: 6 or more miles (10+ km)
Ceiling: ceiling and visibility are OK
Clouds: unknown
Weather: no significant weather observed at this time

METAR text: LIPH 181120Z 10006KT 030V170 CAVOK 20/06 Q1025
Conditions at: LIPH (TREVISO(CIV/IT-A, IT) observed 1120 UTC 18 April 2019
Temperature: 20.0°C (68°F)
Dewpoint: 6.0°C (43°F) [RH = 40%]
Pressure (altimeter): 30.27 inches Hg (1025.0 mb)
Winds: from the E (100 degrees) at 7 MPH (6 knots; 3.1 m/s)
Visibility: 6 or more miles (10+ km)
Ceiling: ceiling and visibility are OK
Clouds: unknown
Weather: no significant weather observed at this time

METAR text: LIPH 181050Z 11007KT 060V180 CAVOK 20/06 Q1025
Conditions at: LIPH (TREVISO(CIV/IT-A, IT) observed 1050 UTC 18 April 2019
Temperature: 20.0°C (68°F)
Dewpoint: 6.0°C (43°F) [RH = 40%]
Pressure (altimeter): 30.27 inches Hg (1025.0 mb)
Winds: from the ESE (110 degrees) at 8 MPH (7 knots; 3.6 m/s)
Visibility: 6 or more miles (10+ km)
Ceiling: ceiling and visibility are OK
Clouds: unknown
Weather: no significant weather observed at this time

METAR text: LIPH 181020Z 06008KT 020V110 CAVOK 19/05 Q1025
Conditions at: LIPH (TREVISO(CIV/IT-A, IT) observed 1020 UTC 18 April 2019
Temperature: 19.0°C (66°F)
Dewpoint: 5.0°C (41°F) [RH = 40%]
Pressure (altimeter): 30.27 inches Hg (1025.0 mb)
Winds: from the ENE (60 degrees) at 9 MPH (8 knots; 4.1 m/s)
Visibility: 6 or more miles (10+ km)
Ceiling: ceiling and visibility are OK
Clouds: unknown
Weather: no significant weather observed at this time

METAR text: LIPH 180950Z 10006KT 060V170 CAVOK 19/05 Q1025
Conditions at: LIPH (TREVISO(CIV/IT-A, IT) observed 0950 UTC 18 April 2019
Temperature: 19.0°C (66°F)
Dewpoint: 5.0°C (41°F) [RH = 40%]
Pressure (altimeter): 30.27 inches Hg (1025.0 mb)
Winds: from the E (100 degrees) at 7 MPH (6 knots; 3.1 m/s)
Visibility: 6 or more miles (10+ km)
Ceiling: ceiling and visibility are OK
Clouds: unknown
Weather: no significant weather observed at this time

METAR text: LIPH 180920Z 07007KT 050V110 CAVOK 19/05 Q1025
Conditions at: LIPH (TREVISO(CIV/IT-A, IT) observed 0920 UTC 18 April 2019
Temperature: 19.0°C (66°F)
Dewpoint: 5.0°C (41°F) [RH = 40%]
Pressure (altimeter): 30.27 inches Hg (1025.0 mb)
Winds: from the ENE (70 degrees) at 8 MPH (7 knots; 3.6 m/s)
Visibility: 6 or more miles (10+ km)
Ceiling: ceiling and visibility are OK
Clouds: unknown
Weather: no significant weather observed at this time

METAR text: LIPH 180850Z 07008KT CAVOK 18/07 Q1025
Conditions at: LIPH (TREVISO(CIV/IT-A, IT) observed 0850 UTC 18 April 2019
Temperature: 18.0°C (64°F)
Dewpoint: 7.0°C (45°F) [RH = 49%]
Pressure (altimeter): 30.27 inches Hg (1025.0 mb)
Winds: from the ENE (70 degrees) at 9 MPH (8 knots; 4.1 m/s)
Visibility: 6 or more miles (10+ km)
Ceiling: ceiling and visibility are OK
Clouds: unknown
Weather: no significant weather observed at this time

METAR text: LIPH 180820Z 08009KT CAVOK 18/05 Q1025
Conditions at: LIPH (TREVISO(CIV/IT-A, IT) observed 0820 UTC 18 April 2019
Temperature: 18.0°C (64°F)
Dewpoint: 5.0°C (41°F) [RH = 42%]
Pressure (altimeter): 30.27 inches Hg (1025.0 mb)
Winds: from the E (80 degrees) at 10 MPH (9 knots; 4.6 m/s)
Visibility: 6 or more miles (10+ km)
Ceiling: ceiling and visibility are OK
Clouds: unknown
Weather: no significant weather observed at this time

METAR text: LIPH 180750Z 07009KT CAVOK 17/05 Q1025
Conditions at: LIPH (TREVISO(CIV/IT-A, IT) observed 0750 UTC 18 April 2019
Temperature: 17.0°C (63°F)
Dewpoint: 5.0°C (41°F) [RH = 45%]
Pressure (altimeter): 30.27 inches Hg (1025.0 mb)
Winds: from the ENE (70 degrees) at 10 MPH (9 knots; 4.6 m/s)
Visibility: 6 or more miles (10+ km)
Ceiling: ceiling and visibility are OK
Clouds: unknown
Weather: no significant weather observed at this time

METAR text: LIPH 180720Z 07006KT 040V100 CAVOK 16/05 Q1025
Conditions at: LIPH (TREVISO(CIV/IT-A, IT) observed 0720 UTC 18 April 2019
Temperature: 16.0°C (61°F)
Dewpoint: 5.0°C (41°F) [RH = 48%]
Pressure (altimeter): 30.27 inches Hg (1025.0 mb)
Winds: from the ENE (70 degrees) at 7 MPH (6 knots; 3.1 m/s)
Visibility: 6 or more miles (10+ km)
Ceiling: ceiling and visibility are OK
Clouds: unknown
Weather: no significant weather observed at this time

METAR text: LIPH 180650Z 04003KT 350V080 CAVOK 15/06 Q1025
Conditions at: LIPH (TREVISO(CIV/IT-A, IT) observed 0650 UTC 18 April 2019
Temperature: 15.0°C (59°F)
Dewpoint: 6.0°C (43°F) [RH = 55%]
Pressure (altimeter): 30.27 inches Hg (1025.0 mb)
Winds: from the NE (40 degrees) at 3 MPH (3 knots; 1.5 m/s)
Visibility: 6 or more miles (10+ km)
Ceiling: ceiling and visibility are OK
Clouds: unknown
Weather: no significant weather observed at this time

METAR text: LIPH 180620Z 02003KT CAVOK 13/05 Q1025
Conditions at: LIPH (TREVISO(CIV/IT-A, IT) observed 0620 UTC 18 April 2019
Temperature: 13.0°C (55°F)
Dewpoint: 5.0°C (41°F) [RH = 58%]
Pressure (altimeter): 30.27 inches Hg (1025.0 mb)
Winds: from the NNE (20 degrees) at 3 MPH (3 knots; 1.5 m/s)
Visibility: 6 or more miles (10+ km)
Ceiling: ceiling and visibility are OK
Clouds: unknown
Weather: no significant weather observed at this time

Forecast for: LIPH (TREVISO(CIV/IT-A, IT)
Text: TAF LIPH 191700Z 1918/2018 VRB05KT CAVOK
Forecast period: 1800 UTC 19 April 2019 to 1800 UTC 20 April 2019
Forecast type: FROM: standard forecast or significant change
Winds: variable direction winds at 6 MPH (5 knots; 2.6 m/s)
Visibility: 6 or more miles 10+ km)
Ceiling: unknown
Clouds: missing
Weather: NSW  (no significant weather)